Sherrill, Arkansas
Current Conditions -  °F | °C
As of 3:53 PM on Monday 22 Dec 2014 (Local Time) from KPBF Reporting Station
Overcast Overcast  
Wind Chill: 58°   Ceiling: 1700
Heat Index: 58°   Visibility: 10mi
Dew Point: 52°   Wind: 7mph
Humidity: 81%   Direction: 180°S
Pressure: 29.59"   Gusts: NA
Location:  34.39°N, 91.95°W
Report Text: KPBF 222153Z AUTO 18006KT 10SM BKN017 OVC023 14/11 A2959 RMK AO2 SLP017 T01440111
Loading
Personal Weather Stations






























Interactive Weather Map New forecast layout! Learn more

10-Day Weather Forecast

Advertisements
Track Severe Weather on mobile